Pittsburgh, Pennsylvania
Traffic Map
Current Weather Conditions
Pittsburgh, Pennsylvania
Clear
Clear
70°
Feels Like: 70°
Wind Chill: 70° Ceiling: Unl
Heat Index: 70° Visibility: 10mi
Dew Point: 52° Wind: 6mph
Humidity: 53% Direction: 60° (ENE)
Pressure: 30.02in Gusts: 0mph
Raw Report DataKAGC 010453Z 06005KT 10SM CLR 21/11 A3002 RMK AO2 SLP159 T02110111 402940156
Traffic Incident Summary
Active as of:
Severity:
Category:
InformationThere was an issue retrieving the traffic information for this location. Please try a different location or try again shortly.
Advertisements
Track Severe Weather on mobile